createdAt,value
2019-02-18T00:02:21.320Z,7.17
2019-02-18T00:04:49.699Z,7.16
2019-02-18T00:07:18.086Z,7.12
2019-02-18T00:09:46.539Z,7.11
2019-02-18T00:12:15.003Z,7.09
2019-02-18T00:14:43.376Z,7.05
2019-02-18T00:17:11.898Z,7.05
2019-02-18T00:19:40.363Z,7.00
2019-02-18T00:22:09.082Z,7.00
2019-02-18T00:24:37.493Z,6.94
2019-02-18T00:27:06.244Z,6.94
2019-02-18T00:29:34.721Z,6.91
2019-02-18T00:32:03.415Z,6.88
2019-02-18T00:34:32.123Z,6.86
2019-02-18T00:37:00.502Z,6.87
2019-02-18T00:39:29.152Z,6.87
2019-02-18T00:41:57.558Z,6.84
2019-02-18T00:44:26.268Z,6.82
2019-02-18T00:46:54.726Z,6.81
2019-02-18T00:49:23.526Z,6.81
2019-02-18T00:51:52.191Z,6.80
2019-02-18T00:54:20.627Z,6.77
2019-02-18T00:56:49.375Z,6.77
2019-02-18T00:59:18.050Z,6.77
2019-02-18T01:01:46.623Z,6.77
2019-02-18T01:04:15.109Z,6.76
2019-02-18T01:06:43.580Z,6.77
2019-02-18T01:09:12.041Z,6.77
2019-02-18T01:11:40.537Z,6.78
2019-02-18T01:14:09.321Z,6.78
2019-02-18T01:16:37.842Z,6.79
2019-02-18T01:19:06.285Z,6.78
2019-02-18T01:21:35.007Z,6.77
2019-02-18T01:24:03.582Z,6.75
2019-02-18T01:26:31.957Z,6.76
2019-02-18T01:29:00.428Z,6.75
2019-02-18T01:31:28.872Z,6.77
2019-02-18T01:33:57.236Z,6.77
2019-02-18T01:36:25.644Z,6.73
2019-02-18T01:38:54.009Z,6.72
2019-02-18T01:41:22.419Z,6.69
2019-02-18T01:43:51.169Z,6.70
2019-02-18T01:46:19.622Z,6.67
2019-02-18T01:48:48.012Z,6.52
2019-02-18T01:51:16.398Z,6.48
2019-02-18T01:53:46.459Z,6.42
2019-02-18T01:56:14.944Z,6.31
2019-02-18T01:58:43.311Z,6.24
2019-02-18T02:01:11.965Z,6.26
2019-02-18T02:03:40.644Z,6.21
2019-02-18T02:06:09.023Z,6.20
2019-02-18T02:08:37.501Z,6.21
2019-02-18T02:11:06.024Z,6.22
2019-02-18T02:13:35.859Z,6.29
2019-02-18T02:16:06.122Z,6.33
2019-02-18T02:18:34.847Z,6.36
2019-02-18T02:21:03.205Z,6.37
2019-02-18T02:23:31.660Z,6.38
2019-02-18T02:26:00.105Z,6.39
2019-02-18T02:28:28.561Z,6.39
2019-02-18T02:30:57.000Z,6.37
2019-02-18T02:33:25.557Z,6.39
2019-02-18T02:35:54.341Z,6.37
2019-02-18T02:38:22.821Z,6.38
2019-02-18T02:40:51.262Z,6.37
2019-02-18T02:43:19.955Z,6.35
2019-02-18T02:45:48.409Z,6.35
2019-02-18T02:48:16.914Z,6.33
2019-02-18T02:50:45.466Z,6.31
2019-02-18T02:53:13.979Z,6.23
2019-02-18T02:55:42.429Z,6.18
2019-02-18T02:58:10.886Z,6.17
2019-02-18T03:00:39.341Z,6.13
2019-02-18T03:03:07.775Z,6.13
2019-02-18T03:05:36.195Z,6.12
2019-02-18T03:08:04.653Z,6.10
2019-02-18T03:10:33.440Z,6.06
2019-02-18T03:13:01.831Z,6.06
2019-02-18T03:15:30.254Z,6.04
2019-02-18T03:17:58.723Z,6.03
2019-02-18T03:20:27.086Z,5.88
2019-02-18T03:22:55.541Z,5.67
2019-02-18T03:25:28.583Z,5.64
2019-02-18T03:28:11.612Z,5.52
2019-02-18T03:30:42.707Z,5.42
2019-02-18T03:33:14.347Z,5.30
2019-02-18T03:35:42.785Z,5.39
2019-02-18T03:38:11.178Z,5.51
2019-02-18T03:40:39.612Z,5.56
2019-02-18T03:43:08.077Z,5.59
2019-02-18T03:45:36.529Z,5.62
2019-02-18T03:48:04.998Z,5.66
2019-02-18T03:50:33.381Z,5.68
2019-02-18T03:53:01.842Z,5.72
2019-02-18T03:55:30.300Z,5.73
2019-02-18T03:57:58.765Z,5.74
2019-02-18T04:00:27.235Z,5.75
2019-02-18T04:02:55.668Z,5.73
2019-02-18T04:05:24.080Z,5.71
2019-02-18T04:07:52.428Z,5.73
2019-02-18T04:10:20.849Z,5.72
2019-02-18T04:12:49.222Z,5.64
2019-02-18T04:15:18.159Z,5.62
2019-02-18T04:17:46.543Z,5.57
2019-02-18T04:20:15.191Z,5.40
2019-02-18T04:22:43.695Z,5.40
2019-02-18T04:25:12.181Z,5.40
2019-02-18T04:27:40.547Z,5.42
2019-02-18T04:30:13.692Z,5.37
2019-02-18T04:32:42.211Z,5.36
2019-02-18T04:35:10.670Z,5.36
2019-02-18T04:37:39.147Z,5.34
2019-02-18T04:40:09.324Z,5.25
2019-02-18T04:42:37.756Z,5.07
2019-02-18T04:45:08.680Z,4.91
2019-02-18T04:47:37.080Z,4.87
2019-02-18T04:50:06.997Z,4.75
2019-02-18T04:52:35.538Z,4.80
2019-02-18T04:55:05.984Z,4.80
2019-02-18T04:57:34.390Z,4.86
2019-02-18T05:00:02.908Z,4.78
2019-02-18T05:02:31.463Z,4.78
2019-02-18T05:05:00.359Z,4.85
2019-02-18T05:07:28.967Z,4.92
2019-02-18T05:09:57.443Z,4.83
2019-02-18T05:12:25.818Z,4.79
2019-02-18T05:14:54.245Z,4.67
2019-02-18T05:17:22.779Z,4.58
2019-02-18T05:19:51.584Z,4.58
2019-02-18T05:22:20.298Z,4.56
2019-02-18T05:24:48.959Z,4.55
2019-02-18T05:27:17.317Z,4.51
2019-02-18T05:29:45.716Z,4.49
2019-02-18T05:32:14.170Z,4.45
2019-02-18T05:34:42.639Z,4.50
2019-02-18T05:37:11.092Z,4.48
2019-02-18T05:39:39.525Z,4.50
2019-02-18T05:42:07.987Z,4.46
2019-02-18T05:44:36.547Z,4.46
2019-02-18T05:47:05.339Z,4.28
2019-02-18T05:49:33.888Z,4.27
2019-02-18T05:52:02.281Z,4.27
2019-02-18T05:54:30.644Z,4.28
2019-02-18T05:56:59.215Z,4.26
2019-02-18T05:59:27.589Z,4.31
2019-02-18T06:01:55.945Z,4.37
2019-02-18T06:04:24.449Z,4.26
2019-02-18T06:06:52.876Z,4.29
2019-02-18T06:09:29.113Z,4.31
2019-02-18T06:11:51.391Z,4.36
2019-02-18T06:14:19.797Z,4.29
2019-02-18T06:16:48.169Z,4.23
2019-02-18T06:19:16.636Z,4.25
2019-02-18T06:21:45.142Z,4.22
2019-02-18T06:24:13.627Z,4.21
2019-02-18T06:26:42.212Z,4.15
2019-02-18T06:29:10.761Z,4.18
2019-02-18T06:31:39.430Z,4.24
2019-02-18T06:34:07.876Z,4.31
2019-02-18T06:36:36.343Z,4.30
2019-02-18T06:39:06.286Z,4.36
2019-02-18T06:41:34.717Z,4.25
2019-02-18T06:44:03.138Z,4.30
2019-02-18T06:46:35.942Z,4.32
2019-02-18T06:49:08.980Z,4.27
2019-02-18T06:51:37.712Z,4.20
2019-02-18T06:54:06.087Z,4.10
2019-02-18T06:56:36.203Z,4.15
2019-02-18T06:59:06.378Z,4.17
2019-02-18T07:01:38.882Z,4.22
2019-02-18T07:04:08.900Z,4.24
2019-02-18T07:06:41.395Z,4.23
2019-02-18T07:09:17.115Z,4.19
2019-02-18T07:11:47.228Z,4.24
2019-02-18T07:14:15.756Z,4.30
2019-02-18T07:16:44.598Z,4.31
2019-02-18T07:19:12.989Z,4.42
2019-02-18T07:21:41.468Z,4.48
2019-02-18T07:24:09.898Z,4.36
2019-02-18T07:26:38.429Z,4.42
2019-02-18T07:29:06.838Z,4.31
2019-02-18T07:31:35.367Z,4.43
2019-02-18T07:34:03.841Z,4.29
2019-02-18T07:36:32.259Z,4.38
2019-02-18T07:39:01.063Z,4.41
2019-02-18T07:41:29.726Z,4.40
2019-02-18T07:43:58.192Z,4.49
2019-02-18T07:46:26.664Z,4.62
2019-02-18T07:48:55.288Z,4.69
2019-02-18T07:51:23.738Z,4.81
2019-02-18T07:53:52.204Z,4.87
2019-02-18T07:56:20.598Z,4.88
2019-02-18T07:58:49.028Z,4.82
2019-02-18T08:01:17.419Z,4.84
2019-02-18T08:03:45.796Z,4.95
2019-02-18T08:06:14.276Z,4.93
2019-02-18T08:08:42.668Z,5.01
2019-02-18T08:11:11.107Z,5.05
2019-02-18T08:13:39.524Z,5.13
2019-02-18T08:16:07.955Z,5.18
2019-02-18T08:18:36.364Z,5.13
2019-02-18T08:21:05.151Z,5.27
2019-02-18T08:23:33.684Z,5.23
2019-02-18T08:26:02.137Z,5.23
2019-02-18T08:28:30.880Z,5.29
2019-02-18T08:30:59.270Z,5.40
2019-02-18T08:33:27.812Z,5.52
2019-02-18T08:35:56.346Z,5.64
2019-02-18T08:38:24.944Z,5.74
2019-02-18T08:40:53.313Z,5.77
2019-02-18T08:43:21.681Z,5.83
2019-02-18T08:45:50.083Z,5.92
2019-02-18T08:48:18.446Z,5.96
2019-02-18T08:50:46.839Z,6.05
2019-02-18T08:53:15.322Z,6.13
2019-02-18T08:55:43.698Z,6.21
2019-02-18T08:58:12.086Z,6.32
2019-02-18T09:00:40.567Z,6.39
2019-02-18T09:03:09.006Z,6.50
2019-02-18T09:05:37.577Z,6.57
2019-02-18T09:08:06.263Z,6.66
2019-02-18T09:10:34.632Z,6.71
2019-02-18T09:13:03.101Z,6.80
2019-02-18T09:15:31.469Z,6.89
2019-02-18T09:18:00.022Z,6.96
2019-02-18T09:20:28.478Z,7.06
2019-02-18T09:23:04.068Z,7.18
2019-02-18T09:25:36.630Z,7.26
2019-02-18T09:28:05.096Z,7.34
2019-02-18T09:30:35.451Z,7.42
2019-02-18T09:33:03.998Z,7.51
2019-02-18T09:35:32.490Z,7.61
2019-02-18T09:38:00.980Z,7.70
2019-02-18T09:40:29.423Z,7.83
2019-02-18T09:42:58.076Z,7.91
2019-02-18T09:45:26.562Z,7.99
2019-02-18T09:47:55.039Z,8.09
2019-02-18T09:50:23.501Z,8.15
2019-02-18T09:52:52.449Z,8.28
2019-02-18T09:55:21.150Z,8.38
2019-02-18T09:57:49.612Z,8.42
2019-02-18T10:00:18.368Z,8.52
2019-02-18T10:02:46.798Z,8.65
2019-02-18T10:05:15.283Z,8.76
2019-02-18T10:07:43.655Z,8.85
2019-02-18T10:10:12.176Z,8.94
2019-02-18T10:12:40.644Z,9.11
2019-02-18T10:15:12.370Z,9.19
2019-02-18T10:17:40.962Z,9.25
2019-02-18T10:20:13.266Z,9.44
2019-02-18T10:22:41.686Z,9.52
2019-02-18T10:25:12.029Z,9.55
2019-02-18T10:27:40.640Z,9.65
2019-02-18T10:30:11.283Z,9.68
2019-02-18T10:32:39.816Z,9.82
2019-02-18T10:35:10.867Z,10.02
2019-02-18T10:37:39.317Z,10.06
2019-02-18T10:40:09.651Z,10.19
2019-02-18T10:42:38.047Z,10.24
2019-02-18T10:45:13.064Z,10.29
2019-02-18T10:47:41.580Z,10.36
2019-02-18T10:50:11.648Z,10.47
2019-02-18T10:52:40.338Z,10.54
2019-02-18T10:55:11.239Z,10.71
2019-02-18T10:57:40.157Z,10.74
2019-02-18T11:00:14.783Z,10.84
2019-02-18T11:02:43.253Z,10.87
2019-02-18T11:05:11.758Z,10.88
2019-02-18T11:07:40.477Z,10.97
2019-02-18T11:10:14.399Z,10.99
2019-02-18T11:12:43.171Z,11.04
2019-02-18T11:15:13.215Z,11.10
2019-02-18T11:17:42.435Z,11.20
2019-02-18T11:20:11.853Z,11.24
2019-02-18T11:22:40.429Z,11.27
2019-02-18T11:25:12.993Z,11.34
2019-02-18T11:27:41.446Z,11.47
2019-02-18T11:30:19.524Z,11.49
2019-02-18T11:32:47.933Z,11.47
2019-02-18T11:35:16.440Z,11.46
2019-02-18T11:37:44.934Z,11.55
2019-02-18T11:40:18.296Z,11.58
2019-02-18T11:42:46.800Z,11.60
2019-02-18T11:45:17.309Z,11.57
2019-02-18T11:47:45.734Z,11.61
2019-02-18T11:50:15.191Z,11.70
2019-02-18T11:52:43.723Z,11.77
2019-02-18T11:55:13.353Z,11.94
2019-02-18T11:57:42.255Z,11.99
2019-02-18T12:00:12.904Z,12.00
2019-02-18T12:02:41.332Z,12.07
2019-02-18T12:05:10.888Z,12.08
2019-02-18T12:07:39.411Z,12.12
2019-02-18T12:10:10.202Z,12.15
2019-02-18T12:12:39.034Z,12.15
2019-02-18T12:15:12.799Z,12.33
2019-02-18T12:17:41.339Z,12.40
2019-02-18T12:20:14.134Z,12.44
2019-02-18T12:22:42.676Z,12.50
2019-02-18T12:25:12.120Z,12.54
2019-02-18T12:27:40.859Z,12.62
2019-02-18T12:30:14.178Z,12.68
2019-02-18T12:32:42.862Z,12.78
2019-02-18T12:35:11.463Z,12.84
2019-02-18T12:37:39.944Z,12.86
2019-02-18T12:40:10.495Z,12.96
2019-02-18T12:42:38.953Z,12.99
2019-02-18T12:45:10.902Z,12.96
2019-02-18T12:47:41.007Z,12.96
2019-02-18T12:50:10.817Z,13.05
2019-02-18T12:52:39.281Z,13.05
2019-02-18T12:55:09.225Z,13.11
2019-02-18T12:57:38.144Z,13.20
2019-02-18T13:00:12.993Z,13.17
2019-02-18T13:02:44.703Z,13.21
2019-02-18T13:05:12.545Z,13.11
2019-02-18T13:07:40.907Z,13.23
2019-02-18T13:10:10.074Z,13.37
2019-02-18T13:12:38.602Z,13.34
2019-02-18T13:15:12.824Z,13.30
2019-02-18T13:17:42.849Z,13.25
2019-02-18T13:20:11.498Z,13.38
2019-02-18T13:22:40.930Z,13.45
2019-02-18T13:25:10.426Z,13.46
2019-02-18T13:27:39.123Z,13.39
2019-02-18T13:30:21.242Z,13.40
2019-02-18T13:32:49.782Z,13.45
2019-02-18T13:35:18.249Z,13.49
2019-02-18T13:37:47.007Z,13.48
2019-02-18T13:40:16.568Z,13.49
2019-02-18T13:42:45.532Z,13.54
2019-02-18T13:45:14.091Z,13.54
2019-02-18T13:47:42.527Z,13.53
2019-02-18T13:50:12.361Z,13.54
2019-02-18T13:52:40.825Z,13.59
2019-02-18T13:55:11.247Z,13.64
2019-02-18T13:57:40.079Z,13.57
2019-02-18T14:00:15.435Z,13.55
2019-02-18T14:02:43.803Z,13.57
2019-02-18T14:05:12.643Z,13.52
2019-02-18T14:07:41.105Z,13.49
2019-02-18T14:10:09.632Z,13.60
2019-02-18T14:12:38.386Z,13.67
2019-02-18T14:15:09.686Z,13.64
2019-02-18T14:17:38.213Z,13.60
2019-02-18T14:20:11.931Z,13.60
2019-02-18T14:22:40.390Z,13.70
2019-02-18T14:25:10.313Z,13.71
2019-02-18T14:27:38.740Z,13.61
2019-02-18T14:30:10.425Z,13.63
2019-02-18T14:32:38.879Z,13.55
2019-02-18T14:35:08.020Z,13.53
2019-02-18T14:37:36.408Z,13.54
2019-02-18T14:40:05.133Z,13.52
2019-02-18T14:42:33.926Z,13.89
2019-02-18T14:45:02.407Z,15.33
2019-02-18T14:47:30.923Z,16.58
2019-02-18T14:49:59.399Z,16.82
2019-02-18T14:52:27.867Z,16.34
2019-02-18T14:54:56.317Z,15.74
2019-02-18T14:57:25.700Z,15.22
2019-02-18T14:59:54.152Z,14.83
2019-02-18T15:02:22.915Z,14.45
2019-02-18T15:04:51.344Z,14.23
2019-02-18T15:07:19.889Z,14.09
2019-02-18T15:09:48.325Z,13.93
2019-02-18T15:12:17.484Z,13.86
2019-02-18T15:14:45.857Z,13.76
2019-02-18T15:17:14.690Z,13.66
2019-02-18T15:19:43.390Z,13.60
2019-02-18T15:22:11.781Z,13.54
2019-02-18T15:24:40.235Z,13.57
2019-02-18T15:27:08.701Z,13.55
2019-02-18T15:29:37.144Z,13.47
2019-02-18T15:32:05.791Z,13.47
2019-02-18T15:34:34.256Z,13.53
2019-02-18T15:37:02.703Z,13.47
2019-02-18T15:39:31.458Z,13.48
2019-02-18T15:41:59.969Z,13.53
2019-02-18T15:44:28.819Z,13.48
2019-02-18T15:46:57.208Z,13.37
2019-02-18T15:49:25.685Z,13.29
2019-02-18T15:51:54.134Z,13.23
2019-02-18T15:54:22.666Z,13.13
2019-02-18T15:56:51.492Z,13.09
2019-02-18T15:59:20.171Z,13.02
2019-02-18T16:01:48.687Z,12.92
2019-02-18T16:04:17.249Z,12.86
2019-02-18T16:06:45.716Z,12.80
2019-02-18T16:09:14.366Z,12.78
2019-02-18T16:11:43.168Z,12.73
2019-02-18T16:14:11.879Z,12.65
2019-02-18T16:16:40.400Z,12.56
2019-02-18T16:19:08.884Z,12.50
2019-02-18T16:21:37.605Z,12.45
2019-02-18T16:24:06.336Z,12.38
2019-02-18T16:26:34.770Z,12.31
2019-02-18T16:29:03.464Z,12.24
2019-02-18T16:31:32.229Z,12.16
2019-02-18T16:34:00.999Z,12.05
2019-02-18T16:36:29.471Z,11.96
2019-02-18T16:38:58.499Z,11.87
2019-02-18T16:41:26.934Z,11.81
2019-02-18T16:43:55.510Z,11.74
2019-02-18T16:46:24.321Z,11.65
2019-02-18T16:48:53.357Z,11.62
2019-02-18T16:51:21.740Z,11.60
2019-02-18T16:53:50.565Z,11.58
2019-02-18T16:56:19.006Z,11.51
2019-02-18T16:58:47.788Z,11.45
2019-02-18T17:01:16.475Z,11.37
2019-02-18T17:03:45.161Z,11.32
2019-02-18T17:06:13.622Z,11.23
2019-02-18T17:08:42.135Z,11.15
2019-02-18T17:11:10.879Z,11.09
2019-02-18T17:13:39.348Z,11.04
2019-02-18T17:16:07.752Z,10.98
2019-02-18T17:18:36.286Z,10.95
2019-02-18T17:21:04.778Z,10.89
2019-02-18T17:23:33.142Z,10.85
2019-02-18T17:26:01.631Z,10.80
2019-02-18T17:28:30.378Z,10.77
2019-02-18T17:30:59.005Z,10.75
2019-02-18T17:33:27.549Z,10.71
2019-02-18T17:35:55.980Z,10.67
2019-02-18T17:38:24.379Z,10.66
2019-02-18T17:40:52.774Z,10.62
2019-02-18T17:43:21.178Z,10.58
2019-02-18T17:45:49.655Z,10.56
2019-02-18T17:48:18.117Z,10.53
2019-02-18T17:50:46.779Z,10.50
2019-02-18T17:53:15.400Z,10.54
2019-02-18T17:55:43.921Z,10.56
2019-02-18T17:58:12.577Z,10.55
2019-02-18T18:00:42.624Z,10.52
2019-02-18T18:03:11.000Z,10.54
2019-02-18T18:05:39.817Z,10.52
2019-02-18T18:08:08.218Z,10.50
2019-02-18T18:10:36.915Z,10.51
2019-02-18T18:13:05.467Z,10.49
2019-02-18T18:15:33.991Z,10.51
2019-02-18T18:18:02.525Z,10.50
2019-02-18T18:20:31.109Z,10.51
2019-02-18T18:22:59.689Z,10.46
2019-02-18T18:25:28.646Z,10.49
2019-02-18T18:27:57.380Z,10.44
2019-02-18T18:30:25.816Z,10.42
2019-02-18T18:32:54.397Z,10.39
2019-02-18T18:35:23.174Z,10.39
2019-02-18T18:37:51.932Z,10.38
2019-02-18T18:40:20.728Z,10.34
2019-02-18T18:42:49.192Z,10.29
2019-02-18T18:45:18.117Z,10.24
2019-02-18T18:47:46.685Z,10.20
2019-02-18T18:50:19.477Z,10.15
2019-02-18T18:52:48.057Z,10.10
2019-02-18T18:55:16.744Z,10.06
2019-02-18T18:57:45.259Z,10.04
2019-02-18T19:00:20.831Z,10.02
2019-02-18T19:02:49.681Z,10.02
2019-02-18T19:05:18.553Z,10.01
2019-02-18T19:07:47.059Z,10.02
2019-02-18T19:10:15.588Z,10.02
2019-02-18T19:12:44.372Z,9.98
2019-02-18T19:15:14.701Z,9.98
2019-02-18T19:17:43.797Z,9.98
2019-02-18T19:20:12.942Z,9.94
2019-02-18T19:22:42.033Z,9.94
2019-02-18T19:25:13.825Z,9.91
2019-02-18T19:27:42.571Z,9.92
2019-02-18T19:30:22.836Z,9.91
2019-02-18T19:32:51.761Z,9.89
2019-02-18T19:35:20.292Z,9.86
2019-02-18T19:37:48.771Z,9.87
2019-02-18T19:40:17.300Z,9.85
2019-02-18T19:42:45.846Z,9.83
2019-02-18T19:45:16.901Z,9.82
2019-02-18T19:47:45.521Z,9.80
2019-02-18T19:50:14.001Z,9.77
2019-02-18T19:52:42.753Z,9.75
2019-02-18T19:55:12.297Z,9.73
2019-02-18T19:57:42.386Z,9.71
2019-02-18T20:00:16.042Z,9.68
2019-02-18T20:02:44.542Z,9.68
2019-02-18T20:05:13.212Z,9.68
2019-02-18T20:07:41.952Z,9.67
2019-02-18T20:10:11.514Z,9.67
2019-02-18T20:12:39.989Z,9.66
2019-02-18T20:15:12.034Z,9.65
2019-02-18T20:17:40.547Z,9.61
2019-02-18T20:20:11.394Z,9.61
2019-02-18T20:22:39.931Z,9.58
2019-02-18T20:25:09.301Z,9.54
2019-02-18T20:27:37.902Z,9.49
2019-02-18T20:30:10.140Z,9.45
2019-02-18T20:32:38.566Z,9.42
2019-02-18T20:35:08.391Z,9.38
2019-02-18T20:37:37.151Z,9.33
2019-02-18T20:40:07.150Z,9.29
2019-02-18T20:42:35.729Z,9.26
2019-02-18T20:45:05.242Z,9.24
2019-02-18T20:47:33.728Z,9.21
2019-02-18T20:50:02.329Z,9.19
2019-02-18T20:52:30.774Z,9.17
2019-02-18T20:54:59.344Z,9.15
2019-02-18T20:57:27.823Z,9.11
2019-02-18T20:59:56.285Z,9.09
2019-02-18T21:02:24.921Z,9.07
2019-02-18T21:04:53.345Z,9.04
2019-02-18T21:07:21.873Z,9.04
2019-02-18T21:09:50.355Z,9.01
2019-02-18T21:12:20.078Z,8.99
2019-02-18T21:14:49.121Z,8.96
2019-02-18T21:17:17.762Z,8.94
2019-02-18T21:19:46.217Z,8.94
2019-02-18T21:22:14.696Z,8.92
2019-02-18T21:24:43.390Z,8.91
2019-02-18T21:27:11.852Z,8.92
2019-02-18T21:29:40.599Z,8.92
2019-02-18T21:32:08.978Z,8.90
2019-02-18T21:34:37.440Z,8.87
2019-02-18T21:37:06.318Z,8.85
2019-02-18T21:39:34.682Z,8.84
2019-02-18T21:42:03.257Z,8.75
2019-02-18T21:44:31.623Z,8.64
2019-02-18T21:47:00.142Z,8.61
2019-02-18T21:49:28.562Z,8.54
2019-02-18T21:51:57.224Z,8.49
2019-02-18T21:54:25.695Z,8.37
2019-02-18T21:56:54.141Z,8.38
2019-02-18T21:59:22.552Z,8.26
2019-02-18T22:01:51.370Z,8.17
2019-02-18T22:04:19.802Z,8.10
2019-02-18T22:06:48.196Z,8.14
2019-02-18T22:09:16.684Z,8.04
2019-02-18T22:11:45.123Z,8.05
2019-02-18T22:14:13.508Z,7.99
2019-02-18T22:16:42.002Z,7.98
2019-02-18T22:19:10.442Z,7.98
2019-02-18T22:24:06.498Z,8.00
2019-02-18T22:26:34.893Z,7.99
2019-02-18T22:29:03.344Z,7.99
2019-02-18T22:31:31.802Z,7.94
2019-02-18T22:34:00.195Z,7.95
2019-02-18T22:36:28.637Z,7.88
2019-02-18T22:38:57.107Z,7.93
2019-02-18T22:41:25.543Z,7.94
2019-02-18T22:43:54.119Z,7.99
2019-02-18T22:46:22.495Z,7.88
2019-02-18T22:48:50.862Z,7.88
2019-02-18T22:51:19.284Z,7.79
2019-02-18T22:53:47.646Z,7.70
2019-02-18T22:56:16.113Z,7.69
2019-02-18T22:58:44.508Z,7.69
2019-02-18T23:01:13.036Z,7.61
2019-02-18T23:03:41.710Z,7.67
